Time;durP1;ratioP1;P1;durP2;ratioP2;P2;SDS_P1;SDS_P2;PMS_P1;PMS_P2;Temp;Humidity;BMP_temperature;BMP_pressure;BME280_temperature;BME280_humidity;BME280_pressure;Samples;Min_cycle;Max_cycle;Signal;HPM_P1;HPM_P2
2021/12/04 00:02:08;;;;;;;11.88;6.85;;;0.00;51.50;;;-0.26;90.57;98172.91;4985883;28;129737;-84
2021/12/04 00:04:41;;;;;;;8.68;6.22;;;0.00;51.40;;;-0.25;89.69;98158.50;4984568;28;118740;-83
2021/12/04 00:07:11;;;;;;;8.98;6.03;;;-0.10;48.60;;;-0.31;89.88;98164.91;4981730;28;113902;-84
2021/12/04 00:09:44;;;;;;;9.88;6.97;;;-0.10;48.80;;;-0.35;89.76;98174.56;4987808;28;127843;-79
2021/12/04 00:12:13;;;;;;;8.93;6.38;;;-0.10;48.30;;;-0.38;89.54;98170.56;4987306;28;129164;-80
2021/12/04 00:14:42;;;;;;;10.75;7.07;;;-0.10;47.30;;;-0.37;89.60;98178.28;4985676;28;118531;-80
2021/12/04 00:17:11;;;;;;;10.00;6.70;;;-0.20;47.50;;;-0.45;90.07;98173.50;4971180;28;116027;-80
2021/12/04 00:19:42;;;;;;;8.23;6.15;;;-0.20;48.70;;;-0.46;90.29;98174.56;4985546;28;130063;-81
2021/12/04 00:22:11;;;;;;;10.85;7.00;;;-0.20;49.80;;;-0.43;90.26;98174.03;4987167;28;128693;-81
2021/12/04 00:24:39;;;;;;;8.77;6.50;;;-0.30;50.70;;;-0.44;89.91;98177.75;4985611;28;118874;-80
2021/12/04 00:27:08;;;;;;;11.82;6.93;;;-0.20;50.10;;;-0.44;90.38;98183.09;4985906;28;114831;-81
2021/12/04 00:29:37;;;;;;;9.98;6.90;;;-0.20;50.20;;;-0.39;90.49;98184.94;4983976;28;129714;-81
2021/12/04 00:32:11;;;;;;;10.77;6.93;;;-0.20;50.80;;;-0.49;90.18;98180.44;4985485;28;130292;-81
2021/12/04 00:34:43;;;;;;;11.70;6.85;;;-0.20;50.40;;;-0.43;89.98;98190.03;4985491;28;118906;-81
2021/12/04 00:37:38;;;;;;;10.63;6.80;;;-0.20;50.10;;;-0.37;90.36;98201.47;4970289;28;114897;-81
2021/12/04 00:49:20;;;;;;;9.80;5.80;;;-0.30;50.40;;;-0.56;89.91;98202.06;4987322;28;114108;-81
2021/12/04 00:51:54;;;;;;;9.27;5.72;;;-0.30;49.10;;;-0.47;90.07;98204.94;4984940;28;130009;-81
2021/12/04 00:54:24;;;;;;;11.18;6.28;;;-0.30;50.70;;;-0.54;90.44;98212.44;4985150;28;130367;-82
2021/12/04 00:56:55;;;;;;;7.93;6.15;;;-0.30;51.30;;;-0.52;89.93;98207.63;4985272;28;119039;-82
2021/12/04 00:59:24;;;;;;;8.52;6.22;;;-0.40;50.30;;;-0.62;90.30;98211.13;4988390;28;115166;-83
2021/12/04 01:01:52;;;;;;;10.07;5.80;;;-0.40;50.30;;;-0.59;89.53;98215.13;4985078;28;130458;-80
2021/12/04 01:05:08;;;;;;;10.32;6.22;;;-0.40;48.10;;;-0.62;88.93;98218.34;4984824;28;130382;-84
2021/12/04 01:07:38;;;;;;;9.52;5.38;;;-0.40;47.40;;;-0.52;88.71;98210.31;4987328;28;118004;-82
2021/12/04 01:10:09;;;;;;;9.30;6.03;;;-0.40;46.50;;;-0.50;88.19;98216.16;4987261;28;115462;-82
2021/12/04 01:12:38;;;;;;;12.35;5.70;;;-0.50;47.00;;;-0.59;88.60;98217.78;4984588;28;130115;-83
2021/12/04 01:15:09;;;;;;;8.48;5.60;;;-0.50;47.10;;;-0.57;88.86;98218.31;4984646;28;130556;-82
2021/12/04 01:17:37;;;;;;;10.95;6.07;;;-0.50;47.80;;;-0.58;89.23;98219.38;4986661;28;118733;-85
2021/12/04 01:20:07;;;;;;;9.32;5.80;;;-0.50;48.60;;;-0.61;89.06;98215.41;4972164;28;114095;-84
2021/12/04 01:22:37;;;;;;;9.63;5.47;;;-0.60;49.00;;;-0.70;88.98;98219.69;4973584;28;128881;-83
2021/12/04 01:25:06;;;;;;;9.30;5.43;;;-0.60;48.10;;;-0.73;88.51;98218.34;4988040;28;129720;-83
2021/12/04 01:27:36;;;;;;;7.35;4.97;;;-0.60;46.50;;;-0.76;88.18;98213.53;4990706;28;118176;-84
2021/12/04 01:30:07;;;;;;;9.13;5.05;;;-0.60;44.40;;;-0.68;87.71;98214.09;4990268;28;114435;-82
2021/12/04 01:32:37;;;;;;;11.32;5.68;;;-0.50;43.90;;;-0.73;87.84;98213.00;4989629;28;128713;-84
2021/12/04 01:35:06;;;;;;;8.73;5.38;;;-0.50;44.00;;;-0.68;87.89;98216.75;4974802;28;129249;-84
2021/12/04 01:37:35;;;;;;;8.88;5.07;;;-0.50;44.10;;;-0.67;87.83;98215.66;4977433;28;117927;-84
2021/12/04 01:40:07;;;;;;;9.52;4.95;;;-0.50;44.60;;;-0.68;87.98;98219.41;4974569;28;114583;-85
2021/12/04 01:42:36;;;;;;;7.43;5.10;;;-0.60;44.70;;;-0.64;87.61;98217.78;4985288;28;130089;-84
2021/12/04 01:45:07;;;;;;;8.55;5.22;;;-0.60;45.80;;;-0.65;88.04;98217.00;4973952;28;128970;-85
2021/12/04 01:47:36;;;;;;;9.90;5.95;;;-0.70;47.30;;;-0.77;88.78;98208.47;4989616;28;117186;-87
2021/12/04 01:50:06;;;;;;;9.18;5.53;;;-0.70;48.80;;;-0.75;88.99;98220.47;4992264;28;114678;-85
2021/12/04 01:52:35;;;;;;;8.18;5.07;;;-0.80;50.40;;;-0.89;89.62;98219.41;4974165;28;129340;-83
2021/12/04 01:55:08;;;;;;;9.90;6.13;;;-0.80;51.20;;;-0.79;89.20;98227.41;4992060;28;128242;-85
2021/12/04 01:57:38;;;;;;;9.23;5.75;;;-0.70;51.10;;;-0.71;89.36;98230.59;4973463;28;118199;-84
2021/12/04 02:00:08;;;;;;;9.10;5.70;;;-0.70;51.10;;;-0.58;89.13;98228.19;4990288;28;114915;-83
2021/12/04 02:02:40;;;;;;;8.43;6.20;;;-0.60;51.40;;;-0.53;88.82;98237.22;4989903;28;129856;-84
2021/12/04 02:05:10;;;;;;;8.35;5.72;;;-0.60;51.70;;;-0.55;88.20;98240.16;4973174;28;128983;-83
2021/12/04 02:07:39;;;;;;;10.27;5.95;;;-0.60;49.70;;;-0.54;87.82;98236.44;4987788;28;119682;-83
2021/12/04 02:10:11;;;;;;;9.88;5.93;;;-0.60;48.10;;;-0.51;87.25;98243.06;4990014;28;114206;-83
2021/12/04 02:12:40;;;;;;;8.05;5.13;;;-0.60;48.20;;;-0.54;87.46;98241.75;4989341;28;129548;-84
2021/12/04 02:15:15;;;;;;;7.95;4.88;;;-0.60;46.00;;;-0.55;87.07;98245.50;4987605;28;129878;-84
2021/12/04 02:17:45;;;;;;;6.88;4.57;;;-0.60;44.60;;;-0.60;87.02;98245.50;4973297;28;118037;-81
2021/12/04 02:20:20;;;;;;;7.25;4.60;;;-0.60;44.10;;;-0.59;86.80;98249.78;4988074;28;115442;-81
2021/12/04 02:22:50;;;;;;;7.97;4.82;;;-0.60;43.80;;;-0.60;86.98;98246.28;4972438;28;129188;-82
2021/12/04 02:25:19;;;;;;;9.95;5.15;;;-0.60;43.00;;;-0.54;86.61;98241.75;4989231;28;128640;-83
2021/12/04 02:27:49;;;;;;;10.45;4.32;;;-0.60;43.60;;;-0.60;86.96;98234.84;4973026;28;118013;-84
2021/12/04 02:30:22;;;;;;;8.65;4.32;;;-0.60;43.40;;;-0.62;87.26;98229.78;4972966;28;114521;-85
2021/12/04 02:32:52;;;;;;;7.50;4.63;;;-0.60;43.70;;;-0.70;87.52;98224.19;4973507;28;129078;-84
2021/12/04 02:35:25;;;;;;;7.57;4.88;;;-0.70;44.10;;;-0.85;87.90;98228.47;4988916;28;129818;-82
2021/12/04 02:37:54;;;;;;;7.53;4.70;;;-0.90;45.40;;;-0.96;87.96;98230.34;4989691;28;118629;-81
2021/12/04 02:40:24;;;;;;;8.13;4.80;;;-1.00;48.60;;;-0.97;88.25;98230.59;4987981;28;115444;-84
2021/12/04 02:42:53;;;;;;;10.13;5.03;;;-1.10;50.10;;;-0.99;89.37;98232.75;4986888;28;129900;-82
2021/12/04 02:45:21;;;;;;;8.13;5.00;;;-1.10;52.80;;;-0.86;88.92;98234.84;4988899;28;128760;-81
2021/12/04 02:47:50;;;;;;;9.30;5.43;;;-1.10;55.20;;;-0.86;89.76;98234.06;5005354;28;118479;-82
2021/12/04 02:50:19;;;;;;;9.20;5.20;;;-1.00;56.30;;;-0.74;89.16;98243.38;4989313;28;115534;-82
2021/12/04 02:52:49;;;;;;;10.00;5.15;;;-0.80;55.00;;;-0.57;88.77;98236.97;4987325;28;129682;-81
2021/12/04 02:55:19;;;;;;;8.25;5.40;;;-0.80;55.10;;;-0.47;88.64;98236.94;4989091;28;129281;-82
2021/12/04 02:57:48;;;;;;;9.95;5.68;;;-0.70;54.90;;;-0.40;88.52;98237.47;4989427;28;118530;-83
2021/12/04 03:00:20;;;;;;;10.25;5.50;;;-0.70;54.60;;;-0.32;88.21;98243.31;4994009;28;115841;-82
2021/12/04 03:02:49;;;;;;;8.88;5.50;;;-0.60;55.00;;;-0.27;87.96;98235.31;4996498;28;129780;-81
2021/12/04 03:05:23;;;;;;;9.20;5.70;;;-0.60;54.60;;;-0.30;87.99;98241.19;4995949;28;129070;-81
2021/12/04 03:07:54;;;;;;;8.30;5.43;;;-0.50;53.00;;;-0.17;88.11;98239.81;4989486;28;118354;-82
2021/12/04 03:10:24;;;;;;;8.13;5.45;;;-0.50;53.50;;;-0.13;88.06;98235.53;4989419;28;114566;-82
2021/12/04 03:12:53;;;;;;;8.20;5.38;;;-0.50;53.90;;;-0.11;87.63;98236.88;4986243;28;129482;-81
2021/12/04 03:15:22;;;;;;;11.15;6.15;;;-0.40;53.70;;;-0.12;88.26;98243.25;4985632;28;129619;-81
2021/12/04 03:17:52;;;;;;;8.55;5.13;;;-0.40;54.30;;;-0.08;88.37;98244.31;4986161;28;118967;-80
2021/12/04 03:20:20;;;;;;;10.30;6.32;;;-0.40;54.20;;;-0.05;88.17;98243.78;4989227;28;113978;-82
2021/12/04 03:22:51;;;;;;;11.95;7.10;;;-0.30;54.40;;;-0.02;88.02;98242.41;4985390;28;129909;-83
2021/12/04 03:25:21;;;;;;;12.55;7.65;;;-0.30;53.60;;;-0.14;88.88;98244.59;4971942;28;129248;-81
2021/12/04 03:27:50;;;;;;;12.43;6.95;;;-0.30;54.30;;;-0.07;89.02;98251.22;4988619;28;118593;-81
2021/12/04 03:30:31;;;;;;;12.60;7.72;;;-0.30;54.70;;;-0.14;89.33;98244.59;4987599;28;114763;-87
2021/12/04 03:41:20;;;;;;;12.27;7.40;;;-0.30;61.90;;;-0.09;91.10;98248.06;4971756;28;115383;-81
2021/12/04 03:44:02;;;;;;;14.82;7.70;;;-0.30;62.00;;;-0.01;91.42;98246.69;4986939;28;129068;-82
2021/12/04 03:46:30;;;;;;;14.50;8.98;;;-0.30;63.20;;;0.08;90.83;98249.56;4988611;28;130210;-81
2021/12/04 03:48:59;;;;;;;14.88;8.85;;;-0.20;64.50;;;0.04;91.56;98240.53;4987995;28;118832;-81
2021/12/04 03:51:27;;;;;;;14.13;9.10;;;-0.20;65.30;;;-0.08;92.24;98239.00;4987826;28;114221;-82
2021/12/04 03:53:56;;;;;;;16.83;10.15;;;-0.20;65.90;;;-0.10;93.07;98249.13;4970446;28;129632;-80
2021/12/04 03:56:28;;;;;;;15.55;9.50;;;-0.20;67.30;;;-0.12;93.35;98245.94;4983959;28;129828;-80
2021/12/04 03:58:57;;;;;;;16.67;9.65;;;-0.20;68.70;;;-0.02;93.28;98245.09;4987256;28;118765;-81
2021/12/04 04:01:26;;;;;;;16.05;10.05;;;-0.20;69.90;;;0.05;93.20;98247.44;4986977;28;114195;-83
2021/12/04 04:03:54;;;;;;;17.40;10.05;;;-0.20;70.20;;;-0.01;93.57;98252.03;4986001;28;128683;-83
2021/12/04 04:06:23;;;;;;;16.15;10.15;;;-0.20;71.40;;;-0.02;93.72;98253.09;4969500;28;128955;-85
2021/12/04 04:08:51;;;;;;;17.27;11.15;;;-0.20;72.30;;;-0.06;94.18;98244.84;4986692;28;118296;-80
2021/12/04 04:11:20;;;;;;;17.45;10.63;;;-0.20;73.30;;;0.13;93.37;98250.38;4985003;28;115994;-81
2021/12/04 04:13:50;;;;;;;16.50;10.00;;;-0.20;73.90;;;0.20;93.12;98244.72;4984000;28;130084;-82
2021/12/04 04:16:19;;;;;;;18.95;10.95;;;-0.10;74.40;;;0.13;93.31;98245.03;4969693;28;128855;-83
2021/12/04 04:18:48;;;;;;;18.02;11.38;;;-0.10;74.20;;;0.23;92.96;98246.06;4984639;28;118855;-82
2021/12/04 04:21:17;;;;;;;16.67;11.52;;;-0.10;74.10;;;0.08;93.96;98241.56;4970825;28;114704;-82
2021/12/04 04:23:46;;;;;;;18.25;10.65;;;0.00;74.60;;;0.16;93.80;98249.03;4984979;28;130479;-82
2021/12/04 04:26:14;;;;;;;20.38;11.88;;;0.00;75.00;;;-0.01;94.84;98255.47;4985008;28;129594;-82
2021/12/04 04:28:43;;;;;;;22.02;12.63;;;0.00;76.60;;;-0.04;96.05;98245.34;4987415;28;118004;-81
2021/12/04 04:31:14;;;;;;;21.52;12.88;;;0.00;78.80;;;0.02;96.07;98248.81;4986280;28;116261;-81
2021/12/04 04:33:44;;;;;;;23.30;13.13;;;0.00;80.30;;;-0.05;96.88;98251.78;4983657;28;130578;-84
2021/12/04 04:36:24;;;;;;;23.88;12.90;;;0.00;82.80;;;-0.29;98.78;98253.44;4987044;28;128988;-84
2021/12/04 04:39:08;;;;;;;29.75;17.20;;;0.00;86.10;;;-0.14;98.94;98256.06;4987156;28;118370;-84
2021/12/04 04:58:52;;;;;;;24.98;14.38;;;0.10;92.40;;;0.22;98.52;98247.94;4991761;28;129639;-82
2021/12/04 05:01:51;;;;;;;26.45;15.60;;;0.10;92.10;;;0.15;98.43;98253.53;4983181;28;119130;-83
2021/12/04 05:12:49;;;;;;;24.92;16.00;;;0.20;91.50;;;0.27;98.29;98255.91;4942351;28;118912;-82
2021/12/04 05:15:32;;;;;;;24.33;16.20;;;0.20;91.20;;;0.32;97.83;98263.09;4986662;28;116583;-81
2021/12/04 05:18:10;;;;;;;44.92;25.00;;;0.30;90.80;;;0.12;99.27;98259.44;4983165;28;129712;-81
2021/12/04 05:20:49;;;;;;;27.55;17.08;;;0.30;90.50;;;0.14;98.66;98256.50;4984641;28;129549;-86
2021/12/04 05:23:18;;;;;;;22.80;14.48;;;0.30;89.40;;;0.13;98.63;98266.38;4984636;28;118808;-77
2021/12/04 05:25:47;;;;;;;25.50;14.75;;;0.30;87.20;;;0.22;98.38;98263.13;4983563;28;115719;-80
2021/12/04 05:28:16;;;;;;;26.75;15.63;;;0.30;85.60;;;0.23;98.38;98265.53;4986486;28;129437;-80
2021/12/04 05:30:44;;;;;;;28.15;16.02;;;0.40;85.40;;;0.26;97.97;98259.63;4983149;28;129700;-79
2021/12/04 05:33:15;;;;;;;26.83;14.90;;;0.40;85.20;;;0.33;97.13;98265.50;5003331;28;117736;-80
2021/12/04 05:35:48;;;;;;;28.85;14.68;;;0.40;83.50;;;0.45;97.01;98267.03;4986714;28;115787;-80
2021/12/04 05:38:17;;;;;;;36.60;20.00;;;0.40;83.00;;;0.29;97.11;98269.75;4984248;28;130114;-81
2021/12/04 05:40:48;;;;;;;21.10;14.45;;;0.40;81.50;;;0.46;96.60;98268.63;4984062;28;129728;-80
2021/12/04 05:43:22;;;;;;;23.80;12.98;;;0.50;80.20;;;0.43;96.37;98271.84;4983255;28;119316;-80
2021/12/04 05:45:57;;;;;;;21.00;13.05;;;0.50;78.70;;;0.46;96.00;98269.41;4984402;28;115974;-80
2021/12/04 05:48:40;;;;;;;22.80;14.00;;;0.60;76.40;;;0.40;96.30;98280.41;4983814;28;129730;-80
2021/12/04 05:54:07;;;;;;;25.75;14.25;;;0.60;75.60;;;0.51;95.78;98287.28;4983677;28;119568;-82
2021/12/04 05:56:36;;;;;;;34.60;20.58;;;0.60;74.90;;;0.48;95.68;98287.84;4986117;28;114646;-80
2021/12/04 05:59:06;;;;;;;24.15;14.60;;;0.60;73.40;;;0.45;95.95;98283.88;4985261;28;130607;-80
2021/12/04 06:01:34;;;;;;;23.63;14.73;;;0.60;74.30;;;0.52;95.86;98278.22;4984578;28;129941;-80
2021/12/04 06:04:03;;;;;;;25.00;15.20;;;0.60;75.40;;;0.61;95.61;98270.41;4968641;28;117998;-79
2021/12/04 06:06:34;;;;;;;24.08;14.30;;;0.60;74.50;;;0.69;94.98;98269.84;4986572;28;116054;-80
2021/12/04 06:09:03;;;;;;;24.75;13.48;;;0.60;74.60;;;0.60;95.38;98282.19;4988942;28;129570;-80
2021/12/04 06:12:08;;;;;;;26.48;13.45;;;0.60;74.10;;;0.49;95.01;98284.88;4988947;28;128955;-80
2021/12/04 06:14:37;;;;;;;18.52;11.45;;;0.60;72.60;;;0.54;94.93;98292.06;4988920;28;119282;-79
2021/12/04 06:17:05;;;;;;;22.38;12.23;;;0.60;71.00;;;0.62;94.49;98298.72;4986064;28;115841;-77
2021/12/04 06:22:40;;;;;;;24.77;12.85;;;0.60;70.80;;;0.53;95.33;98306.50;4988559;28;128928;-80
2021/12/04 06:25:11;;;;;;;20.58;11.27;;;0.60;71.00;;;0.64;94.30;98294.72;4986556;28;118769;-79
2021/12/04 06:27:59;;;;;;;21.13;11.65;;;0.60;70.90;;;0.54;94.65;98302.75;4986745;28;115747;-79
2021/12/04 06:30:35;;;;;;;20.63;10.90;;;0.70;70.30;;;0.74;94.35;98301.84;4986448;28;130548;-80
2021/12/04 06:33:05;;;;;;;19.70;11.00;;;0.70;70.50;;;0.78;93.11;98302.09;4989090;28;130315;-79
2021/12/04 06:35:36;;;;;;;18.73;11.30;;;0.70;68.10;;;0.66;93.00;98295.22;4989004;28;118402;-79
2021/12/04 06:38:07;;;;;;;16.02;10.45;;;0.60;66.40;;;0.66;92.69;98294.44;4987036;28;115923;-79
2021/12/04 06:40:36;;;;;;;18.33;11.10;;;0.50;64.80;;;0.61;92.67;98297.94;4988772;28;128876;-80
2021/12/04 06:43:07;;;;;;;18.52;10.50;;;0.50;64.90;;;0.65;92.32;98298.94;4971376;28;129303;-79
2021/12/04 06:45:43;;;;;;;18.25;10.07;;;0.50;64.50;;;0.68;91.40;98298.41;4987911;28;117661;-79
2021/12/04 06:48:16;;;;;;;14.70;9.15;;;0.50;62.30;;;0.78;91.04;98307.44;4987284;28;117015;-80
2021/12/04 06:50:47;;;;;;;16.15;9.82;;;0.60;61.20;;;0.85;91.13;98299.91;4988481;28;129124;-79
2021/12/04 06:53:24;;;;;;;18.23;9.25;;;0.70;61.10;;;1.11;89.86;98299.75;4988696;28;131254;-79
2021/12/04 06:55:55;;;;;;;19.75;8.93;;;0.70;59.80;;;1.13;88.89;98308.28;4986313;28;119349;-79
2021/12/04 06:58:26;;;;;;;18.05;10.20;;;0.80;57.10;;;1.26;88.76;98313.00;4988179;28;115030;-79
2021/12/04 07:00:57;;;;;;;18.40;9.02;;;0.90;56.90;;;1.29;87.71;98312.44;4985744;28;130587;-79
2021/12/04 07:03:26;;;;;;;13.93;8.43;;;0.90;53.70;;;1.11;88.50;98323.78;4988610;28;129328;-81
2021/12/04 07:05:54;;;;;;;16.38;8.38;;;0.90;52.20;;;1.14;87.60;98315.22;4985280;28;118871;-78
2021/12/04 07:08:24;;;;;;;16.73;7.60;;;0.90;49.40;;;1.07;86.74;98310.97;4988834;28;116598;-78
2021/12/04 07:10:53;;;;;;;36.72;20.30;;;0.90;46.20;;;0.90;88.21;98307.91;4986196;28;130112;-79
2021/12/04 07:13:22;;;;;;;14.65;9.30;;;0.90;49.20;;;1.13;87.24;98313.63;4986112;28;129623;-78
2021/12/04 07:15:59;;;;;;;17.05;9.52;;;0.90;47.30;;;1.05;86.71;98313.13;4988592;28;118724;-78
2021/12/04 07:18:29;;;;;;;15.15;9.05;;;0.90;45.40;;;1.30;85.71;98303.34;4986517;28;115159;-78
2021/12/04 07:20:57;;;;;;;17.70;11.38;;;1.00;45.10;;;1.24;86.30;98317.81;4985550;28;130456;-78
2021/12/04 07:23:41;;;;;;;17.92;8.68;;;1.00;45.80;;;1.27;85.07;98306.56;4985050;28;129969;-78
2021/12/04 07:26:09;;;;;;;13.63;7.70;;;1.00;43.30;;;1.30;85.09;98313.25;4986881;28;118740;-78
2021/12/04 07:28:42;;;;;;;18.38;8.90;;;1.00;42.50;;;1.32;85.16;98311.88;4986428;28;115187;-79
2021/12/04 07:31:12;;;;;;;15.30;9.35;;;1.00;42.80;;;1.40;84.71;98318.50;4984739;28;129365;-79
2021/12/04 07:33:41;;;;;;;16.70;8.50;;;1.10;42.50;;;1.46;84.68;98303.22;4975089;28;129792;-78
2021/12/04 07:36:09;;;;;;;18.25;10.98;;;1.10;42.80;;;1.56;85.03;98311.97;4964626;28;119080;-78
2021/12/04 07:38:40;;;;;;;22.45;9.15;;;1.20;43.60;;;1.90;83.41;98316.47;4965194;28;115853;-78
2021/12/04 07:41:10;;;;;;;17.73;8.68;;;1.30;42.80;;;1.90;83.04;98310.28;4965534;28;130155;-78
2021/12/04 07:43:39;;;;;;;15.20;9.57;;;1.30;41.40;;;1.89;83.28;98319.41;4967503;28;129588;-79
2021/12/04 07:46:08;;;;;;;19.55;9.85;;;1.40;41.40;;;1.87;82.78;98316.22;4964259;28;118711;-78
2021/12/04 07:48:37;;;;;;;18.10;9.82;;;1.30;39.80;;;1.51;83.63;98316.53;4965927;28;115250;-79
2021/12/04 07:51:05;;;;;;;17.58;9.23;;;1.20;39.80;;;1.31;84.47;98331.69;4967100;28;129170;-78
2021/12/04 07:53:37;;;;;;;19.08;10.13;;;1.10;41.70;;;1.10;86.00;98325.66;4967448;28;130544;-78
2021/12/04 07:56:07;;;;;;;16.45;10.25;;;1.00;43.40;;;1.02;86.39;98324.38;4967834;28;118214;-78
2021/12/04 07:58:36;;;;;;;20.70;10.75;;;0.90;44.60;;;1.02;86.39;98324.38;4967305;28;115891;-79
2021/12/04 08:01:06;;;;;;;19.52;10.82;;;0.80;45.60;;;0.85;87.12;98323.97;4982826;28;130019;-79
2021/12/04 08:03:35;;;;;;;20.10;10.65;;;0.80;46.80;;;0.76;87.20;98336.28;4967278;28;129147;-77
2021/12/04 08:06:04;;;;;;;18.20;11.75;;;0.70;46.40;;;0.78;87.24;98328.78;4964700;28;119371;-77
2021/12/04 08:08:33;;;;;;;17.65;10.88;;;0.60;46.00;;;0.73;86.79;98326.16;4964964;28;115739;-77
2021/12/04 08:11:03;;;;;;;17.52;11.68;;;0.60;45.70;;;0.84;86.88;98327.69;4966390;28;130250;-78
2021/12/04 08:13:33;;;;;;;19.80;11.35;;;0.60;47.40;;;0.94;85.63;98343.69;4982443;28;130017;-79
2021/12/04 08:16:02;;;;;;;20.15;12.50;;;0.60;45.40;;;0.83;86.27;98347.50;4982756;28;117767;-80
2021/12/04 08:18:31;;;;;;;21.08;11.70;;;0.60;45.30;;;1.01;86.12;98341.50;4973199;28;116441;-80
2021/12/04 08:20:59;;;;;;;20.20;11.95;;;0.70;46.20;;;1.23;84.49;98349.09;4967495;28;128161;-78
2021/12/04 08:23:28;;;;;;;22.15;11.57;;;0.70;44.60;;;1.01;84.87;98344.19;4965015;28;129534;-80
2021/12/04 08:25:58;;;;;;;19.20;12.23;;;0.70;43.20;;;1.04;86.14;98348.97;4966141;28;118626;-79
2021/12/04 08:28:28;;;;;;;21.55;14.23;;;0.70;45.70;;;1.24;85.51;98347.22;4982856;28;115478;-81
2021/12/04 08:30:58;;;;;;;25.75;12.60;;;0.80;45.40;;;1.19;85.13;98345.38;4985065;28;130151;-80
2021/12/04 08:33:27;;;;;;;22.80;12.82;;;0.80;44.20;;;1.41;83.94;98347.63;4984535;28;130077;-80
2021/12/04 08:36:14;;;;;;;21.02;12.27;;;0.80;44.00;;;1.24;83.83;98349.91;4985535;28;118869;-81
2021/12/04 08:38:47;;;;;;;21.17;13.23;;;0.80;42.90;;;1.37;83.86;98351.94;4986871;28;115643;-80
2021/12/04 08:41:16;;;;;;;19.98;11.98;;;0.80;43.30;;;1.58;82.37;98354.47;4985310;28;129721;-80
2021/12/04 08:43:45;;;;;;;19.92;12.23;;;0.80;41.70;;;1.62;81.77;98358.16;4986143;28;130090;-78
2021/12/04 08:46:20;;;;;;;23.08;13.88;;;0.80;40.50;;;1.75;81.60;98346.03;4985209;28;119080;-82
2021/12/04 08:48:49;;;;;;;24.95;14.15;;;0.90;40.70;;;1.84;81.42;98333.63;4972782;28;115288;-80
2021/12/04 08:51:29;;;;;;;23.10;14.13;;;1.00;40.60;;;2.01;80.39;98333.22;4987920;28;129514;-80
2021/12/04 08:53:58;;;;;;;20.67;11.82;;;1.10;39.30;;;2.00;80.21;98330.81;4985599;28;129811;-80
2021/12/04 08:56:27;;;;;;;16.50;11.35;;;1.10;39.20;;;2.08;78.40;98340.91;4986945;28;119390;-81
2021/12/04 08:59:05;;;;;;;17.85;11.85;;;1.10;34.90;;;1.78;78.65;98346.25;4986751;28;114676;-80
2021/12/04 09:01:39;;;;;;;19.63;11.93;;;1.00;34.70;;;1.34;80.94;98344.50;4984684;28;130401;-80
2021/12/04 09:04:11;;;;;;;22.70;11.27;;;0.80;36.00;;;1.26;80.16;98334.38;4986698;28;129767;-81
2021/12/04 09:06:41;;;;;;;22.17;11.95;;;0.70;35.40;;;1.53;79.83;98341.13;4983952;28;119523;-81
2021/12/04 09:09:13;;;;;;;22.63;11.40;;;0.70;35.40;;;1.73;78.39;98338.28;4986768;28;115025;-81
2021/12/04 09:11:48;;;;;;;22.35;12.43;;;0.90;33.50;;;1.71;78.51;98340.44;4986845;28;128980;-79
2021/12/04 09:14:19;;;;;;;22.70;11.38;;;1.00;33.00;;;1.70;78.71;98344.19;4984181;28;129692;-81
2021/12/04 09:16:52;;;;;;;19.00;11.48;;;0.90;33.50;;;2.01;77.27;98335.88;4983270;28;119008;-80
2021/12/04 09:19:21;;;;;;;19.60;11.25;;;1.00;32.80;;;1.52;78.45;98344.88;4984703;28;115926;-79
2021/12/04 09:21:58;;;;;;;18.83;11.20;;;0.90;31.90;;;1.63;78.49;98353.63;4984512;28;129925;-79
2021/12/04 09:24:29;;;;;;;21.02;11.20;;;0.90;32.80;;;1.67;78.90;98346.63;4984328;28;129854;-79
2021/12/04 09:27:07;;;;;;;20.63;10.73;;;0.90;33.20;;;1.48;78.38;98351.84;4984841;28;119168;-79
2021/12/04 10:12:14;;;;;;;20.00;10.25;;;0.60;32.60;;;1.72;76.98;98309.94;4972050;28;118003;-84
2021/12/04 10:20:31;;;;;;;17.65;9.88;;;0.70;31.30;;;1.00;79.71;98320.41;4911530;28;127915;-84
2021/12/04 10:34:27;;;;;;;18.00;9.25;;;0.60;31.30;;;1.32;78.41;98311.88;4994713;28;119099;-85
2021/12/04 10:37:05;;;;;;;16.65;10.00;;;0.70;31.00;;;1.41;76.88;98320.09;4987635;28;115722;-89
2021/12/04 10:39:36;;;;;;;18.83;9.73;;;0.80;29.10;;;1.49;77.22;98300.00;5001454;28;129776;-82
2021/12/04 10:42:11;;;;;;;19.27;9.23;;;0.90;29.10;;;1.59;77.10;98305.22;4987393;28;129802;-83
2021/12/04 10:44:42;;;;;;;17.08;9.10;;;1.00;28.60;;;2.19;74.93;98302.22;4985498;28;119055;-81
2021/12/04 10:47:13;;;;;;;15.25;8.48;;;1.10;27.50;;;2.01;74.55;98298.41;4972198;28;114506;-81
2021/12/04 10:49:53;;;;;;;14.88;7.82;;;1.30;25.70;;;1.60;75.16;98290.78;4985170;28;129729;-84
2021/12/04 10:52:32;;;;;;;14.60;8.38;;;1.10;25.00;;;1.65;75.08;98292.63;4987044;28;129993;-84
2021/12/04 10:55:14;;;;;;;14.73;7.95;;;1.10;25.60;;;1.56;75.33;98289.78;4989944;28;120471;-83
2021/12/04 10:58:22;;;;;;;14.43;8.07;;;1.00;26.40;;;1.33;75.42;98297.44;4986706;28;115220;-83
2021/12/04 11:01:06;;;;;;;14.35;8.38;;;0.90;25.50;;;1.52;75.11;98283.38;4988019;28;129368;-82
2021/12/04 11:03:41;;;;;;;13.63;7.65;;;0.90;25.80;;;1.82;73.30;98282.28;4986182;28;129719;-83
2021/12/04 11:06:58;;;;;;;15.27;8.02;;;1.00;24.70;;;1.84;73.41;98282.81;4988232;28;118884;-81
2021/12/04 11:23:47;;;;;;;15.60;7.97;;;1.10;23.00;;;1.66;72.86;98264.81;4986026;28;129770;-80
2021/12/04 11:26:35;;;;;;;11.55;7.22;;;1.10;22.60;;;1.50;72.51;98269.50;4985639;28;129674;-79
2021/12/04 11:35:22;;;;;;;15.35;7.75;;;0.90;22.50;;;1.01;73.68;98272.03;4951424;28;129904;-78
2021/12/04 11:43:23;;;;;;;15.20;7.82;;;0.90;22.90;;;1.60;71.95;98256.03;4966457;28;115536;-80
2021/12/04 11:46:12;;;;;;;15.82;7.70;;;1.10;21.50;;;1.59;71.11;98257.09;4985254;28;129542;-82
2021/12/04 11:48:43;;;;;;;14.98;7.65;;;1.00;20.20;;;1.69;70.90;98257.00;4986901;28;128810;-83
2021/12/04 11:51:17;;;;;;;11.05;6.75;;;1.10;20.50;;;1.49;70.80;98265.22;4986979;28;119048;-81
2021/12/04 11:53:47;;;;;;;16.20;7.47;;;1.00;20.00;;;1.50;70.30;98274.84;4986539;28;116444;-78
2021/12/04 11:56:19;;;;;;;15.02;7.55;;;0.90;19.50;;;1.20;72.09;98266.00;4970173;28;128830;-82
2021/12/04 11:58:53;;;;;;;14.43;7.32;;;0.90;20.70;;;1.26;72.48;98264.88;4987405;28;129880;-80
2021/12/04 12:01:31;;;;;;;13.18;7.20;;;0.90;21.20;;;1.19;72.01;98264.41;4983378;28;119139;-78
2021/12/04 12:04:03;;;;;;;19.08;7.85;;;0.80;20.80;;;1.50;71.14;98277.53;4984622;28;114774;-81
2021/12/04 12:06:37;;;;;;;18.58;8.27;;;0.80;21.30;;;1.30;71.10;98276.63;5003495;28;129252;-80
2021/12/04 12:09:14;;;;;;;14.27;7.38;;;0.80;20.30;;;1.05;72.35;98280.28;4985539;28;129504;-79
2021/12/04 12:11:54;;;;;;;17.73;8.75;;;0.70;21.00;;;0.68;73.14;98271.69;4986137;28;119000;-81
2021/12/04 12:14:37;;;;;;;17.88;8.38;;;0.60;20.80;;;0.56;74.05;98271.22;4984581;28;114755;-81
2021/12/04 12:17:09;;;;;;;12.65;7.90;;;0.50;21.20;;;0.59;74.29;98257.34;4986560;28;128432;-81
2021/12/04 12:19:41;;;;;;;14.73;7.75;;;0.50;21.90;;;0.53;74.27;98263.78;4986302;28;128568;-81
2021/12/04 12:22:37;;;;;;;15.43;8.02;;;0.40;21.40;;;0.55;74.68;98253.63;4970571;28;118991;-82
2021/12/04 12:25:24;;;;;;;14.32;8.52;;;0.40;21.90;;;0.54;73.33;98255.47;4983974;28;116056;-80
2021/12/04 12:33:40;;;;;;;15.18;8.27;;;0.30;21.60;;;0.53;74.03;98243.22;4985803;28;118936;-80
2021/12/04 12:36:13;;;;;;;16.05;8.25;;;0.40;21.80;;;0.47;73.70;98233.66;4954264;28;114566;-84
2021/12/04 12:38:52;;;;;;;19.33;9.23;;;0.30;21.10;;;0.48;73.95;98234.44;4986755;28;128726;-83
2021/12/04 12:41:30;;;;;;;17.92;8.98;;;0.30;21.80;;;0.34;74.79;98235.06;4985311;28;129705;-85
2021/12/04 12:44:09;;;;;;;16.85;9.52;;;0.30;22.40;;;0.14;75.49;98233.28;4971799;28;118180;-86
2021/12/04 12:46:43;;;;;;;15.20;9.05;;;0.20;22.50;;;-0.01;77.03;98236.81;4987140;28;114123;-82
2021/12/04 12:49:27;;;;;;;16.30;9.00;;;0.10;23.50;;;0.04;76.79;98235.19;4986775;28;128750;-83
2021/12/04 12:52:02;;;;;;;20.40;9.25;;;0.10;24.00;;;-0.05;77.25;98246.44;4970745;28;129641;-82
2021/12/04 12:54:35;;;;;;;14.07;8.63;;;0.00;24.60;;;0.11;76.97;98235.69;4987524;28;118666;-82
2021/12/04 12:57:10;;;;;;;17.90;9.75;;;0.00;24.90;;;-0.02;78.07;98245.09;4987819;28;114312;-82